createdAt,value
2022-11-05T00:01:21.780Z,90.50
2022-11-05T00:04:09.637Z,90.70
2022-11-05T00:06:56.038Z,90.70
2022-11-05T00:09:32.690Z,90.50
2022-11-05T00:12:27.375Z,90.50
2022-11-05T00:15:13.105Z,90.70
2022-11-05T00:17:41.072Z,90.70
2022-11-05T00:20:09.522Z,90.60
2022-11-05T00:22:57.066Z,90.70
2022-11-05T00:25:25.741Z,90.70
2022-11-05T00:27:53.505Z,90.70
2022-11-05T00:30:23.138Z,90.70
2022-11-05T00:32:52.173Z,90.50
2022-11-05T00:35:21.717Z,90.40
2022-11-05T00:37:50.393Z,90.30
2022-11-05T00:40:24.604Z,90.10
2022-11-05T00:43:13.335Z,90.00
2022-11-05T00:45:46.647Z,90.10
2022-11-05T00:48:38.343Z,90.10
2022-11-05T00:51:05.284Z,90.00
2022-11-05T00:53:33.989Z,89.90
2022-11-05T00:56:01.486Z,90.00
2022-11-05T00:58:29.207Z,90.00
2022-11-05T01:01:00.133Z,90.40
2022-11-05T01:03:36.668Z,90.50
2022-11-05T01:06:15.151Z,90.60
2022-11-05T01:08:44.037Z,90.50
2022-11-05T01:11:33.037Z,91.40
2022-11-05T01:14:02.398Z,91.40
2022-11-05T01:16:31.963Z,91.50
2022-11-05T01:19:05.719Z,91.90
2022-11-05T01:21:32.770Z,91.90
2022-11-05T01:24:02.845Z,91.70
2022-11-05T01:26:30.965Z,91.60
2022-11-05T01:29:02.323Z,91.70
2022-11-05T01:31:29.400Z,91.80
2022-11-05T01:34:01.436Z,91.90
2022-11-05T01:36:31.742Z,92.00
2022-11-05T01:38:58.943Z,92.60
2022-11-05T01:41:27.096Z,92.50
2022-11-05T01:43:57.532Z,92.60
2022-11-05T01:46:38.519Z,92.70
2022-11-05T01:49:25.007Z,92.80
2022-11-05T01:51:52.215Z,92.90
2022-11-05T01:54:23.186Z,92.90
2022-11-05T01:56:58.026Z,92.90
2022-11-05T01:59:31.886Z,92.80
2022-11-05T02:01:59.248Z,92.90
2022-11-05T02:04:31.092Z,92.80
2022-11-05T02:06:58.510Z,92.90
2022-11-05T02:09:28.372Z,93.00
2022-11-05T02:11:58.394Z,92.90
2022-11-05T02:14:25.187Z,92.90
2022-11-05T02:17:23.858Z,92.90
2022-11-05T02:20:24.533Z,92.70
2022-11-05T02:23:14.659Z,92.50
2022-11-05T02:25:59.772Z,92.40
2022-11-05T02:28:54.326Z,92.20
2022-11-05T02:31:41.796Z,92.30
2022-11-05T02:34:30.609Z,92.30
2022-11-05T02:37:21.971Z,92.30
2022-11-05T02:40:02.108Z,92.30
2022-11-05T02:42:37.888Z,92.30
2022-11-05T02:45:32.477Z,92.00
2022-11-05T02:48:14.805Z,91.90
2022-11-05T02:51:18.945Z,91.90
2022-11-05T02:54:01.749Z,91.70
2022-11-05T02:56:32.933Z,91.50
2022-11-05T02:59:06.866Z,91.60
2022-11-05T03:01:35.447Z,91.30
2022-11-05T03:04:06.684Z,91.20
2022-11-05T03:06:51.550Z,90.90
2022-11-05T03:09:51.253Z,90.90
2022-11-05T03:12:28.685Z,90.70
2022-11-05T03:15:04.666Z,90.80
2022-11-05T03:18:13.002Z,90.80
2022-11-05T03:20:42.659Z,90.70
2022-11-05T03:23:35.810Z,90.60
2022-11-05T03:26:23.515Z,90.60
2022-11-05T03:29:06.665Z,90.40
2022-11-05T03:31:35.340Z,90.20
2022-11-05T03:34:05.341Z,90.00
2022-11-05T03:36:41.268Z,90.20
2022-11-05T03:39:17.465Z,90.00
2022-11-05T03:41:47.882Z,89.90
2022-11-05T03:44:19.221Z,89.90
2022-11-05T03:46:49.545Z,90.00
2022-11-05T03:49:21.414Z,90.20
2022-11-05T03:52:12.216Z,90.20
2022-11-05T03:54:39.064Z,90.20
2022-11-05T03:57:10.792Z,90.20
2022-11-05T03:59:46.608Z,89.80
2022-11-05T04:02:16.122Z,90.10
2022-11-05T04:04:43.596Z,90.00
2022-11-05T04:07:30.445Z,90.20
2022-11-05T04:10:16.872Z,90.30
2022-11-05T04:13:04.481Z,90.20
2022-11-05T04:15:56.170Z,90.30
2022-11-05T04:18:23.365Z,90.20
2022-11-05T04:21:08.697Z,90.10
2022-11-05T04:23:54.520Z,90.10
2022-11-05T04:26:23.737Z,90.00
2022-11-05T04:29:11.301Z,89.90
2022-11-05T04:31:39.080Z,89.70
2022-11-05T04:34:06.294Z,89.70
2022-11-05T04:36:33.350Z,89.80
2022-11-05T04:39:00.392Z,89.90
2022-11-05T04:41:31.467Z,90.00
2022-11-05T04:43:58.935Z,89.80
2022-11-05T04:46:25.986Z,90.00
2022-11-05T04:48:53.042Z,90.00
2022-11-05T04:51:21.484Z,90.10
2022-11-05T04:53:48.237Z,90.10
2022-11-05T04:56:19.583Z,90.10
2022-11-05T04:58:47.059Z,90.20
2022-11-05T05:01:18.189Z,90.30
2022-11-05T05:03:48.258Z,90.40
2022-11-05T05:06:15.412Z,90.40
2022-11-05T05:08:42.610Z,90.30
2022-11-05T05:11:15.669Z,90.40
2022-11-05T05:13:45.044Z,90.40
2022-11-05T05:16:21.880Z,90.30
2022-11-05T05:18:49.558Z,90.40
2022-11-05T05:21:36.283Z,90.60
2022-11-05T05:24:03.655Z,90.70
2022-11-05T05:26:30.463Z,90.80
2022-11-05T05:28:57.224Z,90.70
2022-11-05T05:31:24.118Z,90.70
2022-11-05T05:33:54.293Z,90.80
2022-11-05T05:36:22.413Z,90.90
2022-11-05T05:38:49.258Z,90.90
2022-11-05T05:41:17.160Z,90.90
2022-11-05T05:43:46.090Z,90.80
2022-11-05T05:46:16.265Z,90.90
2022-11-05T05:48:47.700Z,90.90
2022-11-05T05:51:14.610Z,91.10
2022-11-05T05:53:41.914Z,91.10
2022-11-05T05:56:08.771Z,91.10
2022-11-05T05:58:38.190Z,91.30
2022-11-05T06:01:17.194Z,91.30
2022-11-05T06:03:45.910Z,91.40
2022-11-05T06:06:16.109Z,91.60
2022-11-05T06:08:49.208Z,91.70
2022-11-05T06:11:16.418Z,91.70
2022-11-05T06:13:43.156Z,91.70
2022-11-05T06:16:10.251Z,91.80
2022-11-05T06:18:38.079Z,91.90
2022-11-05T06:21:10.342Z,92.00
2022-11-05T06:23:39.333Z,92.10
2022-11-05T06:26:09.470Z,92.20
2022-11-05T06:28:38.954Z,92.20
2022-11-05T06:31:05.880Z,92.20
2022-11-05T06:33:35.956Z,92.20
2022-11-05T06:36:03.455Z,92.20
2022-11-05T06:38:33.825Z,92.30
2022-11-05T06:41:07.137Z,92.30
2022-11-05T06:43:36.759Z,92.30
2022-11-05T06:46:03.830Z,92.30
2022-11-05T06:48:30.625Z,92.30
2022-11-05T06:50:57.521Z,92.30
2022-11-05T06:53:24.785Z,92.30
2022-11-05T06:55:51.537Z,92.30
2022-11-05T06:58:18.573Z,92.30
2022-11-05T07:00:47.403Z,92.20
2022-11-05T07:03:15.128Z,92.20
2022-11-05T07:05:47.717Z,92.20
2022-11-05T07:08:16.942Z,92.30
2022-11-05T07:10:47.864Z,92.30
2022-11-05T07:13:15.464Z,92.20
2022-11-05T07:15:43.176Z,92.10
2022-11-05T07:18:12.403Z,92.20
2022-11-05T07:20:39.488Z,92.30
2022-11-05T07:23:11.343Z,92.20
2022-11-05T07:25:38.936Z,92.20
2022-11-05T07:28:06.603Z,92.30
2022-11-05T07:30:34.115Z,92.20
2022-11-05T07:33:00.870Z,92.20
2022-11-05T07:35:28.019Z,92.20
2022-11-05T07:37:55.770Z,92.00
2022-11-05T07:40:25.186Z,92.10
2022-11-05T07:43:02.519Z,92.00
2022-11-05T07:45:31.865Z,91.90
2022-11-05T07:48:03.924Z,91.90
2022-11-05T07:50:33.994Z,91.80
2022-11-05T07:53:07.758Z,91.50
2022-11-05T07:55:34.815Z,91.70
2022-11-05T07:58:02.066Z,91.50
2022-11-05T08:00:30.166Z,91.50
2022-11-05T08:03:14.117Z,91.40
2022-11-05T08:05:46.264Z,91.20
2022-11-05T08:08:16.706Z,91.10
2022-11-05T08:10:45.716Z,91.00
2022-11-05T08:13:13.432Z,91.00
2022-11-05T08:15:40.985Z,90.80
2022-11-05T08:18:13.712Z,90.50
2022-11-05T08:20:42.947Z,90.60
2022-11-05T08:23:12.534Z,90.50
2022-11-05T08:25:40.459Z,90.30
2022-11-05T08:28:08.366Z,90.10
2022-11-05T08:30:36.219Z,89.80
2022-11-05T08:33:06.529Z,89.60
2022-11-05T08:35:35.101Z,89.60
2022-11-05T08:38:03.791Z,89.60
2022-11-05T08:40:32.898Z,89.50
2022-11-05T08:43:05.477Z,89.00
2022-11-05T08:45:32.759Z,88.80
2022-11-05T08:48:26.415Z,88.60
2022-11-05T08:50:53.579Z,88.30
2022-11-05T08:53:20.554Z,88.50
2022-11-05T08:55:50.114Z,88.60
2022-11-05T08:58:18.341Z,89.00
2022-11-05T09:00:49.291Z,89.20
2022-11-05T09:03:16.877Z,88.80
2022-11-05T09:05:44.192Z,89.20
2022-11-05T09:08:21.569Z,89.40
2022-11-05T09:10:50.106Z,89.50
2022-11-05T09:13:19.690Z,89.90
2022-11-05T09:15:48.359Z,90.00
2022-11-05T09:18:16.129Z,90.00
2022-11-05T09:20:43.057Z,90.00
2022-11-05T09:23:11.452Z,89.80
2022-11-05T09:25:38.702Z,89.50
2022-11-05T09:28:19.326Z,90.10
2022-11-05T09:30:52.285Z,89.80
2022-11-05T09:33:22.102Z,89.80
2022-11-05T09:35:49.022Z,89.70
2022-11-05T09:38:15.971Z,89.80
2022-11-05T09:40:52.984Z,89.80
2022-11-05T09:43:26.066Z,89.60
2022-11-05T09:46:03.789Z,89.80
2022-11-05T09:48:32.813Z,89.60
2022-11-05T09:50:59.884Z,89.60
2022-11-05T09:53:27.165Z,89.80
2022-11-05T09:55:59.550Z,89.80
2022-11-05T09:58:46.361Z,89.80
2022-11-05T10:01:21.930Z,89.70
2022-11-05T10:03:53.934Z,89.40
2022-11-05T10:06:26.174Z,89.50
2022-11-05T10:09:05.736Z,88.80
2022-11-05T10:12:04.785Z,89.00
2022-11-05T10:14:41.978Z,89.40
2022-11-05T10:17:27.461Z,89.20
2022-11-05T10:20:16.204Z,89.20
2022-11-05T10:22:49.197Z,89.10
2022-11-05T10:25:30.423Z,88.90
2022-11-05T10:27:59.496Z,88.80
2022-11-05T10:30:27.346Z,88.40
2022-11-05T10:32:57.641Z,88.00
2022-11-05T10:35:29.366Z,88.10
2022-11-05T10:37:58.045Z,88.10
2022-11-05T10:40:48.112Z,87.70
2022-11-05T10:43:32.222Z,87.70
2022-11-05T10:46:34.604Z,88.10
2022-11-05T10:49:01.513Z,88.30
2022-11-05T10:51:29.701Z,87.70
2022-11-05T10:54:04.682Z,87.30
2022-11-05T10:56:35.828Z,87.20
2022-11-05T10:59:11.814Z,86.50
2022-11-05T11:01:39.407Z,86.50
2022-11-05T11:04:22.156Z,86.60
2022-11-05T11:06:54.392Z,86.30
2022-11-05T11:09:31.876Z,87.00
2022-11-05T11:12:17.240Z,86.90
2022-11-05T11:15:04.820Z,87.10
2022-11-05T11:17:33.034Z,87.20
2022-11-05T11:20:24.436Z,87.70
2022-11-05T11:23:18.226Z,87.40
2022-11-05T11:25:53.071Z,87.40
2022-11-05T11:28:34.021Z,87.80
2022-11-05T11:31:11.418Z,87.70
2022-11-05T11:33:44.818Z,87.20
2022-11-05T11:36:12.804Z,87.70
2022-11-05T11:38:40.679Z,87.40
2022-11-05T11:41:29.865Z,87.80
2022-11-05T11:44:03.349Z,88.30
2022-11-05T11:46:33.039Z,87.90
2022-11-05T11:49:01.073Z,88.10
2022-11-05T11:51:36.785Z,88.00
2022-11-05T11:54:05.197Z,88.10
2022-11-05T11:56:44.272Z,88.10
2022-11-05T11:59:40.486Z,88.30
2022-11-05T12:02:28.882Z,88.40
2022-11-05T12:05:29.472Z,88.30
2022-11-05T12:08:18.134Z,88.70
2022-11-05T12:10:58.609Z,88.80
2022-11-05T12:13:33.500Z,88.60
2022-11-05T12:16:25.331Z,88.50
2022-11-05T12:19:19.969Z,88.60
2022-11-05T12:21:53.670Z,88.50
2022-11-05T12:24:45.454Z,88.60
2022-11-05T12:27:20.997Z,88.50
2022-11-05T12:29:48.044Z,88.60
2022-11-05T12:32:43.168Z,88.50
2022-11-05T12:35:28.128Z,88.60
2022-11-05T12:38:06.886Z,88.60
2022-11-05T12:40:45.698Z,88.50
2022-11-05T12:43:16.709Z,88.30
2022-11-05T12:46:19.542Z,88.20
2022-11-05T12:49:02.787Z,87.80
2022-11-05T12:52:03.585Z,87.70
2022-11-05T12:54:45.628Z,87.30
2022-11-05T12:57:14.001Z,87.80
2022-11-05T12:59:49.575Z,87.90
2022-11-05T13:02:41.344Z,87.80
2022-11-05T13:05:17.747Z,87.90
2022-11-05T13:07:53.911Z,88.30
2022-11-05T13:10:33.051Z,88.20
2022-11-05T13:13:19.190Z,88.30
2022-11-05T13:16:25.120Z,88.70
2022-11-05T13:18:57.670Z,88.70
2022-11-05T13:21:28.978Z,88.60
2022-11-05T13:24:17.723Z,88.80
2022-11-05T13:27:00.298Z,88.60
2022-11-05T13:29:47.589Z,88.30
2022-11-05T13:32:31.256Z,88.90
2022-11-05T13:35:04.072Z,88.80
2022-11-05T13:37:54.402Z,88.90
2022-11-05T13:40:29.976Z,88.90
2022-11-05T13:43:24.232Z,88.30
2022-11-05T13:46:05.969Z,88.40
2022-11-05T13:49:06.300Z,88.10
2022-11-05T13:52:15.208Z,88.20
2022-11-05T13:54:44.719Z,88.20
2022-11-05T13:57:45.672Z,88.50
2022-11-05T14:00:18.045Z,88.60
2022-11-05T14:03:15.977Z,88.20
2022-11-05T14:05:43.596Z,88.30
2022-11-05T14:08:11.372Z,88.60
2022-11-05T14:10:57.034Z,88.30
2022-11-05T14:13:28.718Z,88.70
2022-11-05T14:16:07.455Z,88.80
2022-11-05T14:18:55.828Z,89.00
2022-11-05T14:21:25.666Z,88.50
2022-11-05T14:23:57.924Z,88.10
2022-11-05T14:26:27.062Z,88.70
2022-11-05T14:29:02.955Z,88.00
2022-11-05T14:32:08.753Z,87.90
2022-11-05T14:35:14.998Z,87.90
2022-11-05T14:37:52.636Z,88.20
2022-11-05T14:40:44.282Z,87.90
2022-11-05T14:43:24.098Z,88.10
2022-11-05T14:46:01.520Z,88.50
2022-11-05T14:48:49.892Z,88.30
2022-11-05T14:51:30.798Z,88.70
2022-11-05T14:54:03.394Z,88.50
2022-11-05T14:56:53.228Z,88.50
2022-11-05T14:59:25.850Z,88.90
2022-11-05T15:02:01.683Z,89.00
2022-11-05T15:04:31.324Z,89.00
2022-11-05T15:07:05.845Z,89.10
2022-11-05T15:09:55.821Z,89.40
2022-11-05T15:12:56.954Z,89.50
2022-11-05T15:15:29.724Z,89.30
2022-11-05T15:18:31.159Z,89.10
2022-11-05T15:21:00.939Z,88.70
2022-11-05T15:23:41.977Z,88.50
2022-11-05T15:26:12.311Z,88.80
2022-11-05T15:28:49.915Z,88.80
2022-11-05T15:31:16.612Z,88.90
2022-11-05T15:33:46.932Z,88.90
2022-11-05T15:36:16.841Z,89.00
2022-11-05T15:39:08.217Z,88.80
2022-11-05T15:41:34.516Z,88.80
2022-11-05T15:44:02.713Z,88.90
2022-11-05T15:46:32.156Z,89.00
2022-11-05T15:49:08.962Z,88.80
2022-11-05T15:51:36.225Z,88.80
2022-11-05T15:56:58.979Z,89.10
2022-11-05T15:59:28.128Z,89.40
2022-11-05T16:02:18.316Z,89.60
2022-11-05T16:04:48.924Z,89.60
2022-11-05T16:07:17.513Z,89.50
2022-11-05T16:09:53.116Z,89.60
2022-11-05T16:12:19.807Z,89.60
2022-11-05T16:15:07.703Z,89.50
2022-11-05T16:17:46.690Z,89.30
2022-11-05T16:20:22.661Z,89.30
2022-11-05T16:22:53.338Z,89.30
2022-11-05T16:25:27.325Z,89.20
2022-11-05T16:27:54.332Z,89.30
2022-11-05T16:30:21.603Z,89.30
2022-11-05T16:32:52.155Z,89.60
2022-11-05T16:35:22.697Z,89.50
2022-11-05T16:37:52.281Z,89.60
2022-11-05T16:40:25.305Z,89.70
2022-11-05T16:42:54.062Z,89.80
2022-11-05T16:45:24.116Z,89.90
2022-11-05T16:47:51.679Z,90.00
2022-11-05T16:50:21.469Z,90.20
2022-11-05T16:52:48.752Z,90.30
2022-11-05T16:55:16.725Z,90.50
2022-11-05T16:57:55.328Z,90.70
2022-11-05T17:00:23.701Z,90.80
2022-11-05T17:02:52.410Z,91.00
2022-11-05T17:05:26.729Z,91.10
2022-11-05T17:07:54.255Z,91.30
2022-11-05T17:10:27.077Z,91.40
2022-11-05T17:12:54.178Z,91.60
2022-11-05T17:15:22.947Z,91.80
2022-11-05T17:17:50.284Z,91.60
2022-11-05T17:20:40.744Z,91.80
2022-11-05T17:23:11.579Z,91.80
2022-11-05T17:25:40.450Z,91.90
2022-11-05T17:28:10.593Z,92.00
2022-11-05T17:30:40.337Z,92.00
2022-11-05T17:33:09.523Z,91.90
2022-11-05T17:35:39.720Z,92.00
2022-11-05T17:38:06.403Z,91.90
2022-11-05T17:40:34.414Z,92.00
2022-11-05T17:43:03.747Z,92.00
2022-11-05T17:45:30.920Z,92.00
2022-11-05T17:47:58.306Z,92.00
2022-11-05T17:50:24.979Z,92.00
2022-11-05T17:52:51.854Z,92.00
2022-11-05T17:55:18.709Z,92.10
2022-11-05T17:57:50.693Z,92.10
2022-11-05T18:00:23.922Z,92.20
2022-11-05T18:02:53.657Z,92.10
2022-11-05T18:05:22.081Z,92.10
2022-11-05T18:07:50.272Z,92.10
2022-11-05T18:10:23.917Z,92.10
2022-11-05T18:12:52.749Z,92.00
2022-11-05T18:15:29.536Z,92.10
2022-11-05T18:17:56.315Z,92.10
2022-11-05T18:20:26.206Z,92.10
2022-11-05T18:22:55.019Z,92.10
2022-11-05T18:25:24.596Z,92.10
2022-11-05T18:27:52.479Z,92.10
2022-11-05T18:30:20.326Z,92.10
2022-11-05T18:32:48.279Z,92.00
2022-11-05T18:35:17.208Z,92.00
2022-11-05T18:37:45.557Z,92.00
2022-11-05T18:40:13.723Z,92.00
2022-11-05T18:42:42.454Z,91.90
2022-11-05T18:45:11.216Z,92.00
2022-11-05T18:47:38.968Z,92.00
2022-11-05T18:50:07.188Z,92.10
2022-11-05T18:52:37.572Z,92.00
2022-11-05T18:55:04.707Z,92.10
2022-11-05T18:57:34.469Z,92.10
2022-11-05T19:00:01.516Z,92.10
2022-11-05T19:02:28.631Z,92.10
2022-11-05T19:05:22.541Z,92.10
2022-11-05T19:07:42.267Z,92.10
2022-11-05T19:10:09.496Z,92.10
2022-11-05T19:12:37.948Z,92.10
2022-11-05T19:15:05.479Z,92.00
2022-11-05T19:17:36.370Z,92.00
2022-11-05T19:20:03.832Z,92.00
2022-11-05T19:22:30.949Z,92.10
2022-11-05T19:24:57.836Z,92.20
2022-11-05T19:27:37.710Z,92.20
2022-11-05T19:30:06.134Z,92.30
2022-11-05T19:32:32.936Z,92.30
2022-11-05T19:35:00.747Z,92.40
2022-11-05T19:37:30.056Z,92.40
2022-11-05T19:39:57.121Z,92.40
2022-11-05T19:42:24.370Z,92.40
2022-11-05T19:44:51.722Z,92.50
2022-11-05T19:47:18.475Z,92.50
2022-11-05T19:49:45.316Z,92.60
2022-11-05T19:52:12.226Z,92.50
2022-11-05T19:54:39.185Z,92.60
2022-11-05T19:57:06.482Z,92.60
2022-11-05T19:59:34.800Z,92.60
2022-11-05T20:02:01.613Z,92.50
2022-11-05T20:04:28.599Z,92.60
2022-11-05T20:06:55.335Z,92.50
2022-11-05T20:09:23.819Z,92.60
2022-11-05T20:11:54.096Z,92.60
2022-11-05T20:14:20.951Z,92.60
2022-11-05T20:16:51.118Z,92.50
2022-11-05T20:19:20.869Z,92.40
2022-11-05T20:21:50.591Z,92.40
2022-11-05T20:24:24.763Z,92.30
2022-11-05T20:26:56.456Z,92.40
2022-11-05T20:29:30.538Z,92.30
2022-11-05T20:32:02.123Z,92.30
2022-11-05T20:34:31.278Z,92.30
2022-11-05T20:36:58.118Z,92.20
2022-11-05T20:39:24.832Z,92.20
2022-11-05T20:41:52.893Z,92.20
2022-11-05T20:44:20.531Z,92.20
2022-11-05T20:46:48.719Z,92.20
2022-11-05T20:49:16.633Z,92.20
2022-11-05T20:51:45.837Z,92.20
2022-11-05T20:54:12.631Z,92.20
2022-11-05T20:56:39.469Z,92.20
2022-11-05T20:59:06.246Z,92.20
2022-11-05T21:01:35.632Z,92.20
2022-11-05T21:04:03.116Z,92.20
2022-11-05T21:06:30.436Z,92.20
2022-11-05T21:08:59.268Z,92.20
2022-11-05T21:11:26.237Z,92.10
2022-11-05T21:13:53.089Z,92.00
2022-11-05T21:16:20.993Z,92.00
2022-11-05T21:18:48.052Z,91.90
2022-11-05T21:21:17.706Z,91.80
2022-11-05T21:23:44.620Z,91.80
2022-11-05T21:26:13.759Z,91.60
2022-11-05T21:28:42.679Z,91.60
2022-11-05T21:31:10.134Z,91.60
2022-11-05T21:33:37.338Z,91.50
2022-11-05T21:36:12.278Z,91.60
2022-11-05T21:38:39.832Z,91.60
2022-11-05T21:41:07.529Z,91.70
2022-11-05T21:43:34.477Z,91.70
2022-11-05T21:46:02.836Z,91.70
2022-11-05T21:48:30.705Z,91.70
2022-11-05T21:51:16.045Z,91.60
2022-11-05T21:54:01.723Z,91.50
2022-11-05T21:56:47.355Z,91.30
2022-11-05T21:59:38.820Z,91.10
2022-11-05T22:02:07.017Z,91.00
2022-11-05T22:04:37.672Z,91.00
2022-11-05T22:07:05.971Z,90.90
2022-11-05T22:09:32.940Z,90.80
2022-11-05T22:12:01.023Z,90.80
2022-11-05T22:14:28.264Z,90.70
2022-11-05T22:16:58.074Z,90.80
2022-11-05T22:19:25.426Z,90.80
2022-11-05T22:21:52.278Z,91.10
2022-11-05T22:24:19.759Z,91.30
2022-11-05T22:26:46.924Z,91.40
2022-11-05T22:29:14.099Z,91.70
2022-11-05T22:31:40.848Z,91.70
2022-11-05T22:34:08.231Z,91.90
2022-11-05T22:36:35.453Z,92.00
2022-11-05T22:39:03.597Z,92.10
2022-11-05T22:41:30.465Z,92.20
2022-11-05T22:43:57.815Z,92.30
2022-11-05T22:46:26.015Z,92.40
2022-11-05T22:48:53.920Z,92.40
2022-11-05T22:51:23.255Z,92.40
2022-11-05T22:53:50.408Z,92.30
2022-11-05T22:56:20.025Z,92.40
2022-11-05T22:58:47.305Z,92.50
2022-11-05T23:01:15.682Z,92.50
2022-11-05T23:03:44.747Z,92.50
2022-11-05T23:06:37.827Z,92.50
2022-11-05T23:09:26.211Z,92.50
2022-11-05T23:11:54.162Z,92.50
2022-11-05T23:14:20.844Z,92.50
2022-11-05T23:17:06.419Z,92.40
2022-11-05T23:19:51.908Z,92.30
2022-11-05T23:22:43.451Z,92.20
2022-11-05T23:25:13.806Z,92.30
2022-11-05T23:27:41.203Z,92.30
2022-11-05T23:30:12.716Z,92.40
2022-11-05T23:32:39.467Z,92.60
2022-11-05T23:35:07.015Z,92.70
2022-11-05T23:37:53.052Z,92.60
2022-11-05T23:40:29.444Z,92.70
2022-11-05T23:43:16.601Z,92.60
2022-11-05T23:45:59.180Z,92.50
2022-11-05T23:48:33.229Z,92.30
2022-11-05T23:51:04.704Z,92.10
2022-11-05T23:53:33.735Z,91.80
2022-11-05T23:56:03.817Z,91.60
2022-11-05T23:58:30.621Z,91.40
